sensor_id;sensor_type;location;lat;lon;timestamp;temperature;humidity
41533;DHT22;27262;-35.248;149.138;2023-03-26T00:00:19;20.60;71.40
41533;DHT22;27262;-35.248;149.138;2023-03-26T00:02:49;20.60;71.30
41533;DHT22;27262;-35.248;149.138;2023-03-26T00:05:20;20.60;71.40
41533;DHT22;27262;-35.248;149.138;2023-03-26T00:07:51;20.60;71.60
41533;DHT22;27262;-35.248;149.138;2023-03-26T00:10:21;20.60;71.50
41533;DHT22;27262;-35.248;149.138;2023-03-26T00:12:51;20.70;71.70
41533;DHT22;27262;-35.248;149.138;2023-03-26T00:15:21;20.70;71.60
41533;DHT22;27262;-35.248;149.138;2023-03-26T00:17:52;20.60;71.50
41533;DHT22;27262;-35.248;149.138;2023-03-26T00:20:22;20.70;71.70
41533;DHT22;27262;-35.248;149.138;2023-03-26T00:22:54;20.70;71.70
41533;DHT22;27262;-35.248;149.138;2023-03-26T00:25:24;20.70;71.70
41533;DHT22;27262;-35.248;149.138;2023-03-26T00:27:55;20.70;71.70
41533;DHT22;27262;-35.248;149.138;2023-03-26T00:30:25;20.70;71.70
41533;DHT22;27262;-35.248;149.138;2023-03-26T00:32:57;20.80;71.80
41533;DHT22;27262;-35.248;149.138;2023-03-26T00:35:27;20.80;71.80
41533;DHT22;27262;-35.248;149.138;2023-03-26T00:37:58;20.80;71.80
41533;DHT22;27262;-35.248;149.138;2023-03-26T00:40:29;20.80;71.80
41533;DHT22;27262;-35.248;149.138;2023-03-26T00:43:00;20.80;71.80
41533;DHT22;27262;-35.248;149.138;2023-03-26T00:45:30;20.80;71.90
41533;DHT22;27262;-35.248;149.138;2023-03-26T00:48:01;20.80;71.80
41533;DHT22;27262;-35.248;149.138;2023-03-26T00:50:31;20.80;71.80
41533;DHT22;27262;-35.248;149.138;2023-03-26T00:53:01;20.80;71.80
41533;DHT22;27262;-35.248;149.138;2023-03-26T00:55:32;20.90;71.80
41533;DHT22;27262;-35.248;149.138;2023-03-26T00:58:02;20.80;71.80
41533;DHT22;27262;-35.248;149.138;2023-03-26T01:00:35;20.90;71.90
41533;DHT22;27262;-35.248;149.138;2023-03-26T01:03:13;20.90;71.90
41533;DHT22;27262;-35.248;149.138;2023-03-26T01:06:23;20.90;71.80
41533;DHT22;27262;-35.248;149.138;2023-03-26T01:08:56;20.90;71.90
41533;DHT22;27262;-35.248;149.138;2023-03-26T01:11:31;20.90;72.00
41533;DHT22;27262;-35.248;149.138;2023-03-26T01:14:23;20.90;71.90
41533;DHT22;27262;-35.248;149.138;2023-03-26T01:17:02;21.00;72.00
41533;DHT22;27262;-35.248;149.138;2023-03-26T01:22:26;21.00;72.60
41533;DHT22;27262;-35.248;149.138;2023-03-26T01:24:56;21.00;72.00
41533;DHT22;27262;-35.248;149.138;2023-03-26T01:39:11;21.10;71.80
41533;DHT22;27262;-35.248;149.138;2023-03-26T01:41:52;21.10;71.80
41533;DHT22;27262;-35.248;149.138;2023-03-26T01:44:46;21.00;71.70
41533;DHT22;27262;-35.248;149.138;2023-03-26T01:47:20;21.10;71.70
41533;DHT22;27262;-35.248;149.138;2023-03-26T01:49:50;21.10;71.70
41533;DHT22;27262;-35.248;149.138;2023-03-26T01:52:22;21.10;71.60
41533;DHT22;27262;-35.248;149.138;2023-03-26T01:54:55;21.10;71.60
41533;DHT22;27262;-35.248;149.138;2023-03-26T01:57:32;21.10;71.50
41533;DHT22;27262;-35.248;149.138;2023-03-26T02:00:13;21.10;71.50
41533;DHT22;27262;-35.248;149.138;2023-03-26T02:08:34;21.10;71.40
41533;DHT22;27262;-35.248;149.138;2023-03-26T02:11:11;21.20;71.40
41533;DHT22;27262;-35.248;149.138;2023-03-26T02:13:45;21.20;71.40
41533;DHT22;27262;-35.248;149.138;2023-03-26T02:16:16;21.20;71.40
41533;DHT22;27262;-35.248;149.138;2023-03-26T02:18:48;21.20;71.30
41533;DHT22;27262;-35.248;149.138;2023-03-26T02:21:25;21.20;71.30
41533;DHT22;27262;-35.248;149.138;2023-03-26T02:23:57;21.20;71.30
41533;DHT22;27262;-35.248;149.138;2023-03-26T02:26:32;21.30;71.40
41533;DHT22;27262;-35.248;149.138;2023-03-26T02:29:03;21.30;71.40
41533;DHT22;27262;-35.248;149.138;2023-03-26T02:31:34;21.30;71.40
41533;DHT22;27262;-35.248;149.138;2023-03-26T02:34:05;21.30;71.40
41533;DHT22;27262;-35.248;149.138;2023-03-26T02:36:35;21.30;71.30
41533;DHT22;27262;-35.248;149.138;2023-03-26T02:39:06;21.30;71.30
41533;DHT22;27262;-35.248;149.138;2023-03-26T02:41:37;21.30;71.40
41533;DHT22;27262;-35.248;149.138;2023-03-26T02:44:08;21.30;71.50
41533;DHT22;27262;-35.248;149.138;2023-03-26T02:46:39;21.30;71.60
41533;DHT22;27262;-35.248;149.138;2023-03-26T02:49:09;21.30;71.50
41533;DHT22;27262;-35.248;149.138;2023-03-26T02:51:40;21.40;71.70
41533;DHT22;27262;-35.248;149.138;2023-03-26T02:54:10;21.40;71.60
41533;DHT22;27262;-35.248;149.138;2023-03-26T02:56:41;21.40;71.70
41533;DHT22;27262;-35.248;149.138;2023-03-26T02:59:11;21.40;71.70
41533;DHT22;27262;-35.248;149.138;2023-03-26T03:01:43;21.40;71.70
41533;DHT22;27262;-35.248;149.138;2023-03-26T03:04:13;21.50;71.70
41533;DHT22;27262;-35.248;149.138;2023-03-26T03:06:44;21.50;71.70
41533;DHT22;27262;-35.248;149.138;2023-03-26T03:09:14;21.50;71.70
41533;DHT22;27262;-35.248;149.138;2023-03-26T03:11:44;21.50;71.70
41533;DHT22;27262;-35.248;149.138;2023-03-26T03:14:14;21.50;71.60
41533;DHT22;27262;-35.248;149.138;2023-03-26T03:16:45;21.50;71.50
41533;DHT22;27262;-35.248;149.138;2023-03-26T03:19:16;21.50;71.50
41533;DHT22;27262;-35.248;149.138;2023-03-26T03:21:46;21.50;71.50
41533;DHT22;27262;-35.248;149.138;2023-03-26T03:24:16;21.60;71.70
41533;DHT22;27262;-35.248;149.138;2023-03-26T03:26:47;21.60;71.60
41533;DHT22;27262;-35.248;149.138;2023-03-26T03:29:18;21.60;71.50
41533;DHT22;27262;-35.248;149.138;2023-03-26T03:31:48;21.60;71.50
41533;DHT22;27262;-35.248;149.138;2023-03-26T03:34:19;21.60;71.40
41533;DHT22;27262;-35.248;149.138;2023-03-26T03:36:50;21.60;71.40
41533;DHT22;27262;-35.248;149.138;2023-03-26T03:39:20;21.60;71.40
41533;DHT22;27262;-35.248;149.138;2023-03-26T03:41:51;21.60;71.40
41533;DHT22;27262;-35.248;149.138;2023-03-26T03:44:21;21.60;71.40
41533;DHT22;27262;-35.248;149.138;2023-03-26T03:46:51;21.60;71.40
41533;DHT22;27262;-35.248;149.138;2023-03-26T03:49:23;21.60;71.30
41533;DHT22;27262;-35.248;149.138;2023-03-26T03:51:54;21.70;71.30
41533;DHT22;27262;-35.248;149.138;2023-03-26T03:54:25;21.70;71.30
41533;DHT22;27262;-35.248;149.138;2023-03-26T03:56:56;21.70;71.20
41533;DHT22;27262;-35.248;149.138;2023-03-26T03:59:27;21.70;71.10
41533;DHT22;27262;-35.248;149.138;2023-03-26T04:01:57;21.70;71.00
41533;DHT22;27262;-35.248;149.138;2023-03-26T04:04:27;21.70;71.00
41533;DHT22;27262;-35.248;149.138;2023-03-26T04:06:58;21.70;71.00
41533;DHT22;27262;-35.248;149.138;2023-03-26T04:09:28;21.70;70.90
41533;DHT22;27262;-35.248;149.138;2023-03-26T04:11:58;21.80;71.00
41533;DHT22;27262;-35.248;149.138;2023-03-26T04:14:29;21.80;71.00
41533;DHT22;27262;-35.248;149.138;2023-03-26T04:16:59;21.80;71.00
41533;DHT22;27262;-35.248;149.138;2023-03-26T04:19:30;21.80;70.90
41533;DHT22;27262;-35.248;149.138;2023-03-26T04:22:01;21.80;70.90
41533;DHT22;27262;-35.248;149.138;2023-03-26T04:24:32;21.80;70.80
41533;DHT22;27262;-35.248;149.138;2023-03-26T04:27:19;21.80;70.80
41533;DHT22;27262;-35.248;149.138;2023-03-26T04:29:53;21.90;70.80
41533;DHT22;27262;-35.248;149.138;2023-03-26T04:32:28;21.80;70.80
41533;DHT22;27262;-35.248;149.138;2023-03-26T04:35:02;21.80;70.70
41533;DHT22;27262;-35.248;149.138;2023-03-26T04:37:39;21.80;70.70
41533;DHT22;27262;-35.248;149.138;2023-03-26T04:40:20;21.90;70.70
41533;DHT22;27262;-35.248;149.138;2023-03-26T04:42:51;21.90;70.60
41533;DHT22;27262;-35.248;149.138;2023-03-26T04:45:23;21.90;70.70
41533;DHT22;27262;-35.248;149.138;2023-03-26T04:47:53;21.90;70.70
41533;DHT22;27262;-35.248;149.138;2023-03-26T04:50:24;21.90;70.70
41533;DHT22;27262;-35.248;149.138;2023-03-26T04:52:56;21.90;70.60
41533;DHT22;27262;-35.248;149.138;2023-03-26T04:55:38;21.90;70.60
41533;DHT22;27262;-35.248;149.138;2023-03-26T04:58:11;21.90;70.60
41533;DHT22;27262;-35.248;149.138;2023-03-26T05:00:42;21.90;70.70
41533;DHT22;27262;-35.248;149.138;2023-03-26T05:03:13;22.00;70.60
41533;DHT22;27262;-35.248;149.138;2023-03-26T05:05:44;22.00;70.60
41533;DHT22;27262;-35.248;149.138;2023-03-26T05:08:15;22.00;70.60
41533;DHT22;27262;-35.248;149.138;2023-03-26T05:10:55;22.00;70.70
41533;DHT22;27262;-35.248;149.138;2023-03-26T05:13:25;22.00;70.80
41533;DHT22;27262;-35.248;149.138;2023-03-26T05:15:55;22.00;70.90
41533;DHT22;27262;-35.248;149.138;2023-03-26T05:18:26;22.10;71.00
41533;DHT22;27262;-35.248;149.138;2023-03-26T05:20:56;22.10;71.10
41533;DHT22;27262;-35.248;149.138;2023-03-26T05:23:27;22.10;71.00
41533;DHT22;27262;-35.248;149.138;2023-03-26T05:25:58;22.10;71.10
41533;DHT22;27262;-35.248;149.138;2023-03-26T05:28:29;22.10;71.10
41533;DHT22;27262;-35.248;149.138;2023-03-26T05:30:59;22.10;71.10
41533;DHT22;27262;-35.248;149.138;2023-03-26T05:33:30;22.10;71.10
41533;DHT22;27262;-35.248;149.138;2023-03-26T05:36:05;22.10;71.10
41533;DHT22;27262;-35.248;149.138;2023-03-26T05:38:35;22.20;71.10
41533;DHT22;27262;-35.248;149.138;2023-03-26T05:41:08;22.20;71.10
41533;DHT22;27262;-35.248;149.138;2023-03-26T05:43:38;22.20;71.00
41533;DHT22;27262;-35.248;149.138;2023-03-26T05:46:09;22.20;71.10
41533;DHT22;27262;-35.248;149.138;2023-03-26T05:48:40;22.20;71.00
41533;DHT22;27262;-35.248;149.138;2023-03-26T05:51:10;22.20;71.10
41533;DHT22;27262;-35.248;149.138;2023-03-26T05:53:41;22.20;71.00
41533;DHT22;27262;-35.248;149.138;2023-03-26T05:56:12;22.20;71.00
41533;DHT22;27262;-35.248;149.138;2023-03-26T05:58:42;22.20;70.90
41533;DHT22;27262;-35.248;149.138;2023-03-26T06:01:13;22.20;70.90
41533;DHT22;27262;-35.248;149.138;2023-03-26T06:03:47;22.30;70.90
41533;DHT22;27262;-35.248;149.138;2023-03-26T06:06:19;22.20;70.80
41533;DHT22;27262;-35.248;149.138;2023-03-26T06:08:51;22.20;70.70
41533;DHT22;27262;-35.248;149.138;2023-03-26T06:11:30;22.30;70.80
41533;DHT22;27262;-35.248;149.138;2023-03-26T06:14:00;22.30;70.80
41533;DHT22;27262;-35.248;149.138;2023-03-26T06:16:31;22.30;70.70
41533;DHT22;27262;-35.248;149.138;2023-03-26T06:19:02;22.30;70.70
41533;DHT22;27262;-35.248;149.138;2023-03-26T06:21:32;22.30;70.70
41533;DHT22;27262;-35.248;149.138;2023-03-26T06:24:02;22.30;70.60
41533;DHT22;27262;-35.248;149.138;2023-03-26T06:26:33;22.30;70.60
41533;DHT22;27262;-35.248;149.138;2023-03-26T06:29:03;22.30;70.60
41533;DHT22;27262;-35.248;149.138;2023-03-26T06:31:33;22.40;70.60
41533;DHT22;27262;-35.248;149.138;2023-03-26T06:34:04;22.30;70.60
41533;DHT22;27262;-35.248;149.138;2023-03-26T06:36:34;22.30;70.60
41533;DHT22;27262;-35.248;149.138;2023-03-26T06:39:05;22.40;70.60
41533;DHT22;27262;-35.248;149.138;2023-03-26T06:41:36;22.30;70.60
41533;DHT22;27262;-35.248;149.138;2023-03-26T06:44:06;22.30;70.50
41533;DHT22;27262;-35.248;149.138;2023-03-26T06:46:36;22.40;70.60
41533;DHT22;27262;-35.248;149.138;2023-03-26T06:49:07;22.30;70.50
41533;DHT22;27262;-35.248;149.138;2023-03-26T06:51:37;22.30;70.50
41533;DHT22;27262;-35.248;149.138;2023-03-26T06:54:10;22.40;70.60
41533;DHT22;27262;-35.248;149.138;2023-03-26T06:56:40;22.30;70.50
41533;DHT22;27262;-35.248;149.138;2023-03-26T06:59:11;22.30;70.40
41533;DHT22;27262;-35.248;149.138;2023-03-26T07:01:42;22.30;70.50
41533;DHT22;27262;-35.248;149.138;2023-03-26T07:04:13;22.30;70.50
41533;DHT22;27262;-35.248;149.138;2023-03-26T07:06:44;22.30;70.40
41533;DHT22;27262;-35.248;149.138;2023-03-26T07:09:14;22.40;70.40
41533;DHT22;27262;-35.248;149.138;2023-03-26T07:11:44;22.40;70.40
41533;DHT22;27262;-35.248;149.138;2023-03-26T07:14:14;22.40;70.30
41533;DHT22;27262;-35.248;149.138;2023-03-26T07:16:45;22.40;70.30
41533;DHT22;27262;-35.248;149.138;2023-03-26T07:19:16;22.30;70.20
41533;DHT22;27262;-35.248;149.138;2023-03-26T07:21:46;22.40;70.30
41533;DHT22;27262;-35.248;149.138;2023-03-26T07:24:17;22.40;70.30
41533;DHT22;27262;-35.248;149.138;2023-03-26T07:29:58;22.40;70.10
41533;DHT22;27262;-35.248;149.138;2023-03-26T07:33:03;22.30;69.80
41533;DHT22;27262;-35.248;149.138;2023-03-26T07:36:27;22.40;70.00
41533;DHT22;27262;-35.248;149.138;2023-03-26T07:44:56;22.30;70.90
41533;DHT22;27262;-35.248;149.138;2023-03-26T07:47:32;22.40;70.10
41533;DHT22;27262;-35.248;149.138;2023-03-26T07:50:03;22.30;70.20
41533;DHT22;27262;-35.248;149.138;2023-03-26T07:52:35;22.40;71.00
41533;DHT22;27262;-35.248;149.138;2023-03-26T07:55:06;22.40;70.20
41533;DHT22;27262;-35.248;149.138;2023-03-26T08:00:41;22.40;70.10
41533;DHT22;27262;-35.248;149.138;2023-03-26T08:06:33;22.40;70.20
41533;DHT22;27262;-35.248;149.138;2023-03-26T08:09:11;22.40;70.20
41533;DHT22;27262;-35.248;149.138;2023-03-26T08:17:15;22.40;70.20
41533;DHT22;27262;-35.248;149.138;2023-03-26T08:22:41;22.40;70.30
41533;DHT22;27262;-35.248;149.138;2023-03-26T08:25:26;22.40;70.40
41533;DHT22;27262;-35.248;149.138;2023-03-26T08:31:04;22.40;70.10
41533;DHT22;27262;-35.248;149.138;2023-03-26T08:33:35;22.30;70.20
41533;DHT22;27262;-35.248;149.138;2023-03-26T08:36:06;22.40;70.30
41533;DHT22;27262;-35.248;149.138;2023-03-26T08:38:37;22.40;70.30
41533;DHT22;27262;-35.248;149.138;2023-03-26T08:41:37;22.40;70.20
41533;DHT22;27262;-35.248;149.138;2023-03-26T08:50:41;22.40;70.30
41533;DHT22;27262;-35.248;149.138;2023-03-26T08:55:56;22.40;70.30
41533;DHT22;27262;-35.248;149.138;2023-03-26T08:58:51;22.40;70.20
41533;DHT22;27262;-35.248;149.138;2023-03-26T09:14:01;22.40;70.70
41533;DHT22;27262;-35.248;149.138;2023-03-26T09:40:18;22.50;70.80
41533;DHT22;27262;-35.248;149.138;2023-03-26T09:57:41;22.60;70.70
41533;DHT22;27262;-35.248;149.138;2023-03-26T10:18:21;22.60;70.30
41533;DHT22;27262;-35.248;149.138;2023-03-26T10:27:50;22.50;70.20
41533;DHT22;27262;-35.248;149.138;2023-03-26T10:41:21;22.50;70.10
41533;DHT22;27262;-35.248;149.138;2023-03-26T10:53:09;22.50;70.00
41533;DHT22;27262;-35.248;149.138;2023-03-26T10:55:45;22.50;70.20
41533;DHT22;27262;-35.248;149.138;2023-03-26T10:58:25;22.50;70.10
41533;DHT22;27262;-35.248;149.138;2023-03-26T11:02:17;22.50;70.00
41533;DHT22;27262;-35.248;149.138;2023-03-26T11:05:18;22.50;70.00
41533;DHT22;27262;-35.248;149.138;2023-03-26T11:10:47;22.50;70.10
41533;DHT22;27262;-35.248;149.138;2023-03-26T11:26:57;22.50;70.00
41533;DHT22;27262;-35.248;149.138;2023-03-26T11:32:52;22.50;70.00
41533;DHT22;27262;-35.248;149.138;2023-03-26T11:35:39;22.50;70.00
41533;DHT22;27262;-35.248;149.138;2023-03-26T11:41:02;22.40;70.10
41533;DHT22;27262;-35.248;149.138;2023-03-26T11:43:35;22.40;70.00
41533;DHT22;27262;-35.248;149.138;2023-03-26T11:46:12;22.40;70.00
41533;DHT22;27262;-35.248;149.138;2023-03-26T11:48:52;22.40;69.90
41533;DHT22;27262;-35.248;149.138;2023-03-26T11:51:38;22.40;70.00
41533;DHT22;27262;-35.248;149.138;2023-03-26T11:54:12;22.40;69.90
41533;DHT22;27262;-35.248;149.138;2023-03-26T11:57:06;22.40;70.00
41533;DHT22;27262;-35.248;149.138;2023-03-26T11:59:45;22.40;69.80
41533;DHT22;27262;-35.248;149.138;2023-03-26T12:02:26;22.40;70.00
41533;DHT22;27262;-35.248;149.138;2023-03-26T12:07:53;22.40;69.80
41533;DHT22;27262;-35.248;149.138;2023-03-26T12:10:28;22.30;69.90
41533;DHT22;27262;-35.248;149.138;2023-03-26T12:13:04;22.40;69.90
41533;DHT22;27262;-35.248;149.138;2023-03-26T12:15:42;22.30;69.90
41533;DHT22;27262;-35.248;149.138;2023-03-26T12:18:23;22.40;69.90
41533;DHT22;27262;-35.248;149.138;2023-03-26T12:26:43;22.40;69.80
41533;DHT22;27262;-35.248;149.138;2023-03-26T12:29:18;22.40;70.00
41533;DHT22;27262;-35.248;149.138;2023-03-26T12:32:02;22.40;69.90
41533;DHT22;27262;-35.248;149.138;2023-03-26T12:34:36;22.40;69.90
41533;DHT22;27262;-35.248;149.138;2023-03-26T12:37:46;22.40;69.90
41533;DHT22;27262;-35.248;149.138;2023-03-26T12:40:26;22.40;69.80
41533;DHT22;27262;-35.248;149.138;2023-03-26T12:42:59;22.30;69.90
41533;DHT22;27262;-35.248;149.138;2023-03-26T12:45:53;22.30;69.90
41533;DHT22;27262;-35.248;149.138;2023-03-26T12:48:44;22.30;69.90
41533;DHT22;27262;-35.248;149.138;2023-03-26T12:51:38;22.30;69.90
41533;DHT22;27262;-35.248;149.138;2023-03-26T12:57:16;22.30;69.90
41533;DHT22;27262;-35.248;149.138;2023-03-26T13:02:55;22.20;69.80
41533;DHT22;27262;-35.248;149.138;2023-03-26T13:08:49;22.30;69.80
41533;DHT22;27262;-35.248;149.138;2023-03-26T13:17:15;22.20;69.90
41533;DHT22;27262;-35.248;149.138;2023-03-26T13:29:05;22.20;69.70
41533;DHT22;27262;-35.248;149.138;2023-03-26T13:31:49;22.20;69.80
41533;DHT22;27262;-35.248;149.138;2023-03-26T13:54:33;22.20;69.70
41533;DHT22;27262;-35.248;149.138;2023-03-26T14:02:38;22.20;69.80
41533;DHT22;27262;-35.248;149.138;2023-03-26T14:05:41;22.10;69.80
41533;DHT22;27262;-35.248;149.138;2023-03-26T14:08:26;22.20;69.70
41533;DHT22;27262;-35.248;149.138;2023-03-26T14:11:11;22.20;69.80
41533;DHT22;27262;-35.248;149.138;2023-03-26T14:13:45;22.10;69.80
41533;DHT22;27262;-35.248;149.138;2023-03-26T14:16:24;22.10;69.90
41533;DHT22;27262;-35.248;149.138;2023-03-26T14:28:02;22.10;69.60
41533;DHT22;27262;-35.248;149.138;2023-03-26T14:42:11;22.10;69.70
41533;DHT22;27262;-35.248;149.138;2023-03-26T14:47:49;22.10;69.90
41533;DHT22;27262;-35.248;149.138;2023-03-26T14:53:02;22.10;70.00
41533;DHT22;27262;-35.248;149.138;2023-03-26T15:23:22;22.00;69.90
41533;DHT22;27262;-35.248;149.138;2023-03-26T15:29:02;22.00;70.10
41533;DHT22;27262;-35.248;149.138;2023-03-26T15:41:01;22.00;69.80
41533;DHT22;27262;-35.248;149.138;2023-03-26T15:50:07;22.00;69.90
41533;DHT22;27262;-35.248;149.138;2023-03-26T15:53:38;21.90;69.90
41533;DHT22;27262;-35.248;149.138;2023-03-26T16:01:42;21.90;70.00
41533;DHT22;27262;-35.248;149.138;2023-03-26T16:10:20;21.90;69.90
41533;DHT22;27262;-35.248;149.138;2023-03-26T16:15:55;21.90;69.80
41533;DHT22;27262;-35.248;149.138;2023-03-26T16:18:52;21.90;69.90
41533;DHT22;27262;-35.248;149.138;2023-03-26T16:34:51;21.90;69.80
41533;DHT22;27262;-35.248;149.138;2023-03-26T16:40:31;21.90;69.90
41533;DHT22;27262;-35.248;149.138;2023-03-26T17:11:51;21.80;69.90
41533;DHT22;27262;-35.248;149.138;2023-03-26T17:20:49;21.80;70.10
41533;DHT22;27262;-35.248;149.138;2023-03-26T17:43:09;21.80;70.00
41533;DHT22;27262;-35.248;149.138;2023-03-26T17:45:41;21.80;69.90
41533;DHT22;27262;-35.248;149.138;2023-03-26T17:48:33;21.80;70.10
41533;DHT22;27262;-35.248;149.138;2023-03-26T17:56:51;21.80;70.10
41533;DHT22;27262;-35.248;149.138;2023-03-26T17:59:25;21.80;70.10
41533;DHT22;27262;-35.248;149.138;2023-03-26T18:02:00;21.80;70.00
41533;DHT22;27262;-35.248;149.138;2023-03-26T18:04:40;21.80;70.00
41533;DHT22;27262;-35.248;149.138;2023-03-26T18:13:22;21.80;69.90
41533;DHT22;27262;-35.248;149.138;2023-03-26T18:18:56;21.70;70.80
41533;DHT22;27262;-35.248;149.138;2023-03-26T18:21:35;21.70;70.00
41533;DHT22;27262;-35.248;149.138;2023-03-26T18:24:10;21.70;70.00
41533;DHT22;27262;-35.248;149.138;2023-03-26T18:26:51;21.70;70.10
41533;DHT22;27262;-35.248;149.138;2023-03-26T18:29:29;21.70;70.00
41533;DHT22;27262;-35.248;149.138;2023-03-26T18:32:20;21.70;70.10
41533;DHT22;27262;-35.248;149.138;2023-03-26T18:37:30;21.70;70.00
41533;DHT22;27262;-35.248;149.138;2023-03-26T18:42:42;21.70;70.10
41533;DHT22;27262;-35.248;149.138;2023-03-26T18:45:27;21.70;70.00
41533;DHT22;27262;-35.248;149.138;2023-03-26T18:48:01;21.70;69.80
41533;DHT22;27262;-35.248;149.138;2023-03-26T18:50:41;21.70;69.90
41533;DHT22;27262;-35.248;149.138;2023-03-26T18:53:17;21.70;69.90
41533;DHT22;27262;-35.248;149.138;2023-03-26T18:55:51;21.70;69.90
41533;DHT22;27262;-35.248;149.138;2023-03-26T18:58:34;21.70;70.70
41533;DHT22;27262;-35.248;149.138;2023-03-26T19:01:07;21.70;70.00
41533;DHT22;27262;-35.248;149.138;2023-03-26T19:03:51;21.70;70.00
41533;DHT22;27262;-35.248;149.138;2023-03-26T19:06:22;21.70;70.10
41533;DHT22;27262;-35.248;149.138;2023-03-26T19:08:54;21.70;70.10
41533;DHT22;27262;-35.248;149.138;2023-03-26T19:11:25;21.70;70.10
41533;DHT22;27262;-35.248;149.138;2023-03-26T19:14:05;21.70;70.10
41533;DHT22;27262;-35.248;149.138;2023-03-26T19:16:35;21.70;70.00
41533;DHT22;27262;-35.248;149.138;2023-03-26T19:19:17;21.70;70.10
41533;DHT22;27262;-35.248;149.138;2023-03-26T19:21:49;21.70;70.00
41533;DHT22;27262;-35.248;149.138;2023-03-26T19:24:20;21.70;70.00
41533;DHT22;27262;-35.248;149.138;2023-03-26T19:26:51;21.70;70.00
41533;DHT22;27262;-35.248;149.138;2023-03-26T19:29:28;21.70;70.00
41533;DHT22;27262;-35.248;149.138;2023-03-26T19:34:48;21.70;70.00
41533;DHT22;27262;-35.248;149.138;2023-03-26T19:37:24;21.70;70.10
41533;DHT22;27262;-35.248;149.138;2023-03-26T19:40:41;21.70;70.00
41533;DHT22;27262;-35.248;149.138;2023-03-26T19:42:59;21.70;70.10
41533;DHT22;27262;-35.248;149.138;2023-03-26T19:45:33;21.60;70.10
41533;DHT22;27262;-35.248;149.138;2023-03-26T19:48:31;21.70;70.10
41533;DHT22;27262;-35.248;149.138;2023-03-26T19:51:23;21.70;70.20
41533;DHT22;27262;-35.248;149.138;2023-03-26T19:53:57;21.60;70.10
41533;DHT22;27262;-35.248;149.138;2023-03-26T19:56:29;21.60;70.90
41533;DHT22;27262;-35.248;149.138;2023-03-26T19:58:59;21.60;70.10
41533;DHT22;27262;-35.248;149.138;2023-03-26T20:01:30;21.60;70.10
41533;DHT22;27262;-35.248;149.138;2023-03-26T20:04:03;21.60;70.10
41533;DHT22;27262;-35.248;149.138;2023-03-26T20:06:34;21.60;70.10
41533;DHT22;27262;-35.248;149.138;2023-03-26T20:09:11;21.60;70.10
41533;DHT22;27262;-35.248;149.138;2023-03-26T20:11:42;21.60;70.10
41533;DHT22;27262;-35.248;149.138;2023-03-26T20:14:17;21.60;70.80
41533;DHT22;27262;-35.248;149.138;2023-03-26T20:16:54;21.60;70.00
41533;DHT22;27262;-35.248;149.138;2023-03-26T20:19:25;21.60;70.10
41533;DHT22;27262;-35.248;149.138;2023-03-26T20:21:56;21.60;70.10
41533;DHT22;27262;-35.248;149.138;2023-03-26T20:24:27;21.60;70.10
41533;DHT22;27262;-35.248;149.138;2023-03-26T20:26:58;21.60;70.10
41533;DHT22;27262;-35.248;149.138;2023-03-26T20:29:28;21.60;70.10
41533;DHT22;27262;-35.248;149.138;2023-03-26T20:31:59;21.60;70.10
41533;DHT22;27262;-35.248;149.138;2023-03-26T20:34:29;21.60;70.10
41533;DHT22;27262;-35.248;149.138;2023-03-26T20:37:00;21.60;70.10
41533;DHT22;27262;-35.248;149.138;2023-03-26T20:39:31;21.60;70.20
41533;DHT22;27262;-35.248;149.138;2023-03-26T20:42:01;21.60;70.20
41533;DHT22;27262;-35.248;149.138;2023-03-26T20:44:32;21.60;70.20
41533;DHT22;27262;-35.248;149.138;2023-03-26T20:47:02;21.60;70.30
41533;DHT22;27262;-35.248;149.138;2023-03-26T20:49:33;21.60;70.10
41533;DHT22;27262;-35.248;149.138;2023-03-26T20:52:03;21.60;70.20
41533;DHT22;27262;-35.248;149.138;2023-03-26T20:54:34;21.60;70.20
41533;DHT22;27262;-35.248;149.138;2023-03-26T20:57:04;21.60;70.30
41533;DHT22;27262;-35.248;149.138;2023-03-26T20:59:34;21.60;70.30
41533;DHT22;27262;-35.248;149.138;2023-03-26T21:02:05;21.60;70.30
41533;DHT22;27262;-35.248;149.138;2023-03-26T21:04:35;21.60;70.30
41533;DHT22;27262;-35.248;149.138;2023-03-26T21:07:05;21.50;70.30
41533;DHT22;27262;-35.248;149.138;2023-03-26T21:09:46;21.60;70.20
41533;DHT22;27262;-35.248;149.138;2023-03-26T21:12:41;21.60;70.10
41533;DHT22;27262;-35.248;149.138;2023-03-26T21:15:13;21.60;69.90
41533;DHT22;27262;-35.248;149.138;2023-03-26T21:17:51;21.60;70.20
41533;DHT22;27262;-35.248;149.138;2023-03-26T21:20:23;21.60;70.10
41533;DHT22;27262;-35.248;149.138;2023-03-26T21:23:15;21.60;70.00
41533;DHT22;27262;-35.248;149.138;2023-03-26T21:26:05;21.60;70.10
41533;DHT22;27262;-35.248;149.138;2023-03-26T21:28:48;21.60;71.10
41533;DHT22;27262;-35.248;149.138;2023-03-26T21:31:21;21.60;69.80
41533;DHT22;27262;-35.248;149.138;2023-03-26T21:33:52;21.60;70.00
41533;DHT22;27262;-35.248;149.138;2023-03-26T21:36:24;21.60;70.30
41533;DHT22;27262;-35.248;149.138;2023-03-26T21:38:54;21.70;70.60
41533;DHT22;27262;-35.248;149.138;2023-03-26T21:41:29;21.70;70.20
41533;DHT22;27262;-35.248;149.138;2023-03-26T21:44:04;21.70;70.20
41533;DHT22;27262;-35.248;149.138;2023-03-26T21:46:34;21.70;70.00
41533;DHT22;27262;-35.248;149.138;2023-03-26T21:49:05;21.70;69.90
41533;DHT22;27262;-35.248;149.138;2023-03-26T21:51:36;21.70;69.90
41533;DHT22;27262;-35.248;149.138;2023-03-26T21:54:28;21.70;70.20
41533;DHT22;27262;-35.248;149.138;2023-03-26T22:02:26;21.70;70.10
41533;DHT22;27262;-35.248;149.138;2023-03-26T22:05:04;21.70;70.00
41533;DHT22;27262;-35.248;149.138;2023-03-26T22:07:55;21.80;70.20
41533;DHT22;27262;-35.248;149.138;2023-03-26T22:10:26;21.70;70.30
41533;DHT22;27262;-35.248;149.138;2023-03-26T22:12:57;21.70;70.20
41533;DHT22;27262;-35.248;149.138;2023-03-26T22:15:27;21.70;70.00
41533;DHT22;27262;-35.248;149.138;2023-03-26T22:18:00;21.70;70.10
41533;DHT22;27262;-35.248;149.138;2023-03-26T22:20:31;21.80;70.20
41533;DHT22;27262;-35.248;149.138;2023-03-26T22:23:02;21.70;70.30
41533;DHT22;27262;-35.248;149.138;2023-03-26T22:25:34;21.80;70.50
41533;DHT22;27262;-35.248;149.138;2023-03-26T22:28:04;21.80;70.60
41533;DHT22;27262;-35.248;149.138;2023-03-26T22:30:34;21.80;70.50
41533;DHT22;27262;-35.248;149.138;2023-03-26T22:33:05;21.80;70.50
41533;DHT22;27262;-35.248;149.138;2023-03-26T22:35:43;21.80;70.30